sensor_id;sensor_type;location;lat;lon;timestamp;P1;durP1;ratioP1;P2;durP2;ratioP2
42364;SDS011;28498;54.400;18.566;2023-08-06T00:02:15;5.68;;;3.80;;
42364;SDS011;28498;54.400;18.566;2023-08-06T00:04:42;9.02;;;4.10;;
42364;SDS011;28498;54.400;18.566;2023-08-06T00:07:09;9.10;;;4.13;;
42364;SDS011;28498;54.400;18.566;2023-08-06T00:09:36;9.88;;;4.10;;
42364;SDS011;28498;54.400;18.566;2023-08-06T00:12:03;9.10;;;4.07;;
42364;SDS011;28498;54.400;18.566;2023-08-06T00:14:31;5.50;;;3.05;;
42364;SDS011;28498;54.400;18.566;2023-08-06T00:16:58;7.03;;;3.47;;
42364;SDS011;28498;54.400;18.566;2023-08-06T00:19:25;6.75;;;3.45;;
42364;SDS011;28498;54.400;18.566;2023-08-06T00:21:52;7.50;;;3.38;;
42364;SDS011;28498;54.400;18.566;2023-08-06T00:24:19;7.30;;;3.47;;
42364;SDS011;28498;54.400;18.566;2023-08-06T00:26:46;7.63;;;3.70;;
42364;SDS011;28498;54.400;18.566;2023-08-06T00:29:13;11.27;;;4.53;;
42364;SDS011;28498;54.400;18.566;2023-08-06T00:31:40;9.02;;;4.72;;
42364;SDS011;28498;54.400;18.566;2023-08-06T00:34:07;9.75;;;4.90;;
42364;SDS011;28498;54.400;18.566;2023-08-06T00:36:34;14.85;;;5.55;;
42364;SDS011;28498;54.400;18.566;2023-08-06T00:39:01;11.52;;;5.80;;
42364;SDS011;28498;54.400;18.566;2023-08-06T00:41:29;9.45;;;4.85;;
42364;SDS011;28498;54.400;18.566;2023-08-06T00:43:56;8.30;;;5.20;;
42364;SDS011;28498;54.400;18.566;2023-08-06T00:46:23;11.10;;;5.75;;
42364;SDS011;28498;54.400;18.566;2023-08-06T00:48:50;8.68;;;4.88;;
42364;SDS011;28498;54.400;18.566;2023-08-06T00:51:17;9.52;;;4.47;;
42364;SDS011;28498;54.400;18.566;2023-08-06T00:53:45;10.68;;;4.88;;
42364;SDS011;28498;54.400;18.566;2023-08-06T00:56:13;10.15;;;5.38;;
42364;SDS011;28498;54.400;18.566;2023-08-06T00:58:40;12.10;;;5.38;;
42364;SDS011;28498;54.400;18.566;2023-08-06T01:01:08;8.07;;;4.60;;
42364;SDS011;28498;54.400;18.566;2023-08-06T01:03:35;6.03;;;3.80;;
42364;SDS011;28498;54.400;18.566;2023-08-06T01:06:02;7.97;;;4.72;;
42364;SDS011;28498;54.400;18.566;2023-08-06T01:08:40;7.78;;;4.20;;
42364;SDS011;28498;54.400;18.566;2023-08-06T01:11:23;7.25;;;4.63;;
42364;SDS011;28498;54.400;18.566;2023-08-06T01:14:16;11.40;;;4.57;;
42364;SDS011;28498;54.400;18.566;2023-08-06T01:16:50;9.00;;;4.43;;
42364;SDS011;28498;54.400;18.566;2023-08-06T01:19:18;9.85;;;4.88;;
42364;SDS011;28498;54.400;18.566;2023-08-06T01:21:45;10.20;;;4.65;;
42364;SDS011;28498;54.400;18.566;2023-08-06T01:24:13;11.65;;;4.97;;
42364;SDS011;28498;54.400;18.566;2023-08-06T01:32:53;12.75;;;5.30;;
42364;SDS011;28498;54.400;18.566;2023-08-06T01:35:25;10.23;;;5.30;;
42364;SDS011;28498;54.400;18.566;2023-08-06T01:37:54;8.20;;;5.10;;
42364;SDS011;28498;54.400;18.566;2023-08-06T01:40:22;8.65;;;4.70;;
42364;SDS011;28498;54.400;18.566;2023-08-06T01:42:49;11.10;;;4.50;;
42364;SDS011;28498;54.400;18.566;2023-08-06T01:45:16;8.23;;;4.22;;
42364;SDS011;28498;54.400;18.566;2023-08-06T01:47:43;9.05;;;4.90;;
42364;SDS011;28498;54.400;18.566;2023-08-06T01:50:10;11.93;;;4.95;;
42364;SDS011;28498;54.400;18.566;2023-08-06T01:52:37;11.98;;;5.35;;
42364;SDS011;28498;54.400;18.566;2023-08-06T01:55:04;10.30;;;4.88;;
42364;SDS011;28498;54.400;18.566;2023-08-06T01:57:32;9.23;;;4.65;;
42364;SDS011;28498;54.400;18.566;2023-08-06T01:59:59;11.27;;;4.75;;
42364;SDS011;28498;54.400;18.566;2023-08-06T02:02:26;9.77;;;4.22;;
42364;SDS011;28498;54.400;18.566;2023-08-06T02:04:53;10.75;;;5.07;;
42364;SDS011;28498;54.400;18.566;2023-08-06T02:07:20;11.88;;;4.28;;
42364;SDS011;28498;54.400;18.566;2023-08-06T02:09:47;10.13;;;4.40;;
42364;SDS011;28498;54.400;18.566;2023-08-06T02:12:14;15.25;;;4.95;;
42364;SDS011;28498;54.400;18.566;2023-08-06T02:14:41;9.93;;;4.03;;
42364;SDS011;28498;54.400;18.566;2023-08-06T02:17:08;12.25;;;4.95;;
42364;SDS011;28498;54.400;18.566;2023-08-06T02:19:35;10.15;;;4.97;;
42364;SDS011;28498;54.400;18.566;2023-08-06T02:22:02;10.45;;;4.28;;
42364;SDS011;28498;54.400;18.566;2023-08-06T02:24:30;10.40;;;5.18;;
42364;SDS011;28498;54.400;18.566;2023-08-06T02:26:56;11.90;;;5.05;;
42364;SDS011;28498;54.400;18.566;2023-08-06T02:29:23;6.97;;;4.47;;
42364;SDS011;28498;54.400;18.566;2023-08-06T02:31:50;9.40;;;5.22;;
42364;SDS011;28498;54.400;18.566;2023-08-06T02:34:18;8.05;;;4.75;;
42364;SDS011;28498;54.400;18.566;2023-08-06T02:36:45;8.30;;;4.35;;
42364;SDS011;28498;54.400;18.566;2023-08-06T02:39:12;8.80;;;4.53;;
42364;SDS011;28498;54.400;18.566;2023-08-06T02:41:39;11.07;;;4.80;;
42364;SDS011;28498;54.400;18.566;2023-08-06T02:44:06;9.35;;;4.90;;
42364;SDS011;28498;54.400;18.566;2023-08-06T02:46:33;10.38;;;5.40;;
42364;SDS011;28498;54.400;18.566;2023-08-06T02:49:00;15.32;;;5.43;;
42364;SDS011;28498;54.400;18.566;2023-08-06T02:51:27;12.00;;;4.97;;
42364;SDS011;28498;54.400;18.566;2023-08-06T02:53:54;9.73;;;6.50;;
42364;SDS011;28498;54.400;18.566;2023-08-06T02:56:21;9.02;;;5.68;;
42364;SDS011;28498;54.400;18.566;2023-08-06T02:58:48;9.05;;;5.25;;
42364;SDS011;28498;54.400;18.566;2023-08-06T03:01:15;17.45;;;5.93;;
42364;SDS011;28498;54.400;18.566;2023-08-06T03:03:42;12.25;;;6.63;;
42364;SDS011;28498;54.400;18.566;2023-08-06T03:06:09;11.85;;;6.45;;
42364;SDS011;28498;54.400;18.566;2023-08-06T03:08:36;13.20;;;6.72;;
42364;SDS011;28498;54.400;18.566;2023-08-06T03:11:03;16.05;;;7.22;;
42364;SDS011;28498;54.400;18.566;2023-08-06T03:13:30;17.80;;;9.13;;
42364;SDS011;28498;54.400;18.566;2023-08-06T03:15:58;18.10;;;8.38;;
42364;SDS011;28498;54.400;18.566;2023-08-06T03:18:26;13.45;;;6.68;;
42364;SDS011;28498;54.400;18.566;2023-08-06T03:20:53;17.30;;;6.55;;
42364;SDS011;28498;54.400;18.566;2023-08-06T03:23:20;11.27;;;6.32;;
42364;SDS011;28498;54.400;18.566;2023-08-06T03:25:47;15.45;;;6.28;;
42364;SDS011;28498;54.400;18.566;2023-08-06T03:28:14;16.88;;;7.75;;
42364;SDS011;28498;54.400;18.566;2023-08-06T03:30:42;16.67;;;7.40;;
42364;SDS011;28498;54.400;18.566;2023-08-06T03:33:09;16.38;;;7.50;;
42364;SDS011;28498;54.400;18.566;2023-08-06T03:35:36;19.48;;;7.93;;
42364;SDS011;28498;54.400;18.566;2023-08-06T03:38:03;16.17;;;7.18;;
42364;SDS011;28498;54.400;18.566;2023-08-06T03:40:30;17.55;;;7.57;;
42364;SDS011;28498;54.400;18.566;2023-08-06T03:42:57;15.63;;;7.60;;
42364;SDS011;28498;54.400;18.566;2023-08-06T03:45:24;14.50;;;6.85;;
42364;SDS011;28498;54.400;18.566;2023-08-06T03:47:51;15.88;;;7.88;;
42364;SDS011;28498;54.400;18.566;2023-08-06T03:50:18;19.38;;;7.63;;
42364;SDS011;28498;54.400;18.566;2023-08-06T03:52:45;20.45;;;7.40;;
42364;SDS011;28498;54.400;18.566;2023-08-06T03:55:13;24.35;;;7.82;;
42364;SDS011;28498;54.400;18.566;2023-08-06T03:57:40;14.98;;;7.38;;
42364;SDS011;28498;54.400;18.566;2023-08-06T04:00:07;15.45;;;7.97;;
42364;SDS011;28498;54.400;18.566;2023-08-06T04:02:34;17.98;;;7.82;;
42364;SDS011;28498;54.400;18.566;2023-08-06T04:05:02;19.63;;;7.63;;
42364;SDS011;28498;54.400;18.566;2023-08-06T04:07:29;15.73;;;8.07;;
42364;SDS011;28498;54.400;18.566;2023-08-06T04:09:59;15.70;;;6.72;;
42364;SDS011;28498;54.400;18.566;2023-08-06T04:12:27;20.98;;;8.32;;
42364;SDS011;28498;54.400;18.566;2023-08-06T04:14:56;15.88;;;8.00;;
42364;SDS011;28498;54.400;18.566;2023-08-06T04:17:24;16.10;;;7.47;;
42364;SDS011;28498;54.400;18.566;2023-08-06T04:19:52;15.02;;;7.05;;
42364;SDS011;28498;54.400;18.566;2023-08-06T04:22:20;20.98;;;8.98;;
42364;SDS011;28498;54.400;18.566;2023-08-06T04:24:48;16.52;;;7.30;;
42364;SDS011;28498;54.400;18.566;2023-08-06T04:27:15;14.95;;;7.50;;
42364;SDS011;28498;54.400;18.566;2023-08-06T04:29:43;22.95;;;8.02;;
42364;SDS011;28498;54.400;18.566;2023-08-06T04:32:10;16.98;;;7.88;;
42364;SDS011;28498;54.400;18.566;2023-08-06T04:34:37;21.38;;;9.65;;
42364;SDS011;28498;54.400;18.566;2023-08-06T04:37:04;17.02;;;7.47;;
42364;SDS011;28498;54.400;18.566;2023-08-06T04:39:31;13.85;;;7.47;;
42364;SDS011;28498;54.400;18.566;2023-08-06T04:41:58;15.85;;;7.75;;
42364;SDS011;28498;54.400;18.566;2023-08-06T04:44:25;18.10;;;9.23;;
42364;SDS011;28498;54.400;18.566;2023-08-06T04:46:53;16.67;;;7.57;;
42364;SDS011;28498;54.400;18.566;2023-08-06T04:49:20;15.68;;;8.32;;
42364;SDS011;28498;54.400;18.566;2023-08-06T04:51:47;17.00;;;7.85;;
42364;SDS011;28498;54.400;18.566;2023-08-06T04:54:14;13.20;;;7.60;;
42364;SDS011;28498;54.400;18.566;2023-08-06T04:56:41;13.00;;;7.10;;
42364;SDS011;28498;54.400;18.566;2023-08-06T04:59:09;18.05;;;7.45;;
42364;SDS011;28498;54.400;18.566;2023-08-06T05:01:35;18.60;;;7.90;;
42364;SDS011;28498;54.400;18.566;2023-08-06T05:04:03;19.67;;;9.35;;
42364;SDS011;28498;54.400;18.566;2023-08-06T05:06:30;20.30;;;8.57;;
42364;SDS011;28498;54.400;18.566;2023-08-06T05:08:57;17.60;;;9.27;;
42364;SDS011;28498;54.400;18.566;2023-08-06T05:11:24;16.58;;;8.13;;
42364;SDS011;28498;54.400;18.566;2023-08-06T05:13:51;16.02;;;8.27;;
42364;SDS011;28498;54.400;18.566;2023-08-06T05:16:18;23.08;;;8.73;;
42364;SDS011;28498;54.400;18.566;2023-08-06T05:18:45;15.18;;;8.10;;
42364;SDS011;28498;54.400;18.566;2023-08-06T05:21:12;17.20;;;8.18;;
42364;SDS011;28498;54.400;18.566;2023-08-06T05:23:39;16.25;;;8.50;;
42364;SDS011;28498;54.400;18.566;2023-08-06T05:26:06;18.17;;;8.85;;
42364;SDS011;28498;54.400;18.566;2023-08-06T05:28:34;15.93;;;9.00;;
42364;SDS011;28498;54.400;18.566;2023-08-06T05:31:04;14.10;;;7.55;;
42364;SDS011;28498;54.400;18.566;2023-08-06T05:33:31;16.00;;;7.72;;
42364;SDS011;28498;54.400;18.566;2023-08-06T05:35:58;16.98;;;7.88;;
42364;SDS011;28498;54.400;18.566;2023-08-06T05:38:25;17.45;;;7.97;;
42364;SDS011;28498;54.400;18.566;2023-08-06T05:40:53;20.92;;;7.85;;
42364;SDS011;28498;54.400;18.566;2023-08-06T05:43:20;16.05;;;7.47;;
42364;SDS011;28498;54.400;18.566;2023-08-06T05:45:48;15.82;;;7.18;;
42364;SDS011;28498;54.400;18.566;2023-08-06T05:48:16;18.92;;;8.32;;
42364;SDS011;28498;54.400;18.566;2023-08-06T05:50:43;17.02;;;8.52;;
42364;SDS011;28498;54.400;18.566;2023-08-06T05:53:10;16.98;;;8.65;;
42364;SDS011;28498;54.400;18.566;2023-08-06T05:55:37;19.52;;;8.25;;
42364;SDS011;28498;54.400;18.566;2023-08-06T05:58:05;20.27;;;8.23;;
42364;SDS011;28498;54.400;18.566;2023-08-06T06:00:32;20.88;;;8.23;;
42364;SDS011;28498;54.400;18.566;2023-08-06T06:02:59;21.02;;;8.30;;
42364;SDS011;28498;54.400;18.566;2023-08-06T06:05:26;20.30;;;8.98;;
42364;SDS011;28498;54.400;18.566;2023-08-06T06:07:53;15.75;;;8.85;;
42364;SDS011;28498;54.400;18.566;2023-08-06T06:10:20;18.73;;;9.43;;
42364;SDS011;28498;54.400;18.566;2023-08-06T06:12:47;17.40;;;8.68;;
42364;SDS011;28498;54.400;18.566;2023-08-06T06:15:14;15.35;;;8.85;;
42364;SDS011;28498;54.400;18.566;2023-08-06T06:17:41;19.13;;;8.20;;
42364;SDS011;28498;54.400;18.566;2023-08-06T06:20:08;15.20;;;7.57;;
42364;SDS011;28498;54.400;18.566;2023-08-06T06:22:35;18.05;;;8.48;;
42364;SDS011;28498;54.400;18.566;2023-08-06T06:25:02;21.63;;;8.52;;
42364;SDS011;28498;54.400;18.566;2023-08-06T06:27:29;22.55;;;8.98;;
42364;SDS011;28498;54.400;18.566;2023-08-06T06:29:56;17.80;;;8.20;;
42364;SDS011;28498;54.400;18.566;2023-08-06T06:32:23;16.42;;;8.27;;
42364;SDS011;28498;54.400;18.566;2023-08-06T06:34:51;20.05;;;8.82;;
42364;SDS011;28498;54.400;18.566;2023-08-06T06:37:18;24.73;;;9.98;;
42364;SDS011;28498;54.400;18.566;2023-08-06T06:39:45;18.33;;;8.57;;
42364;SDS011;28498;54.400;18.566;2023-08-06T06:42:12;19.40;;;8.68;;
42364;SDS011;28498;54.400;18.566;2023-08-06T06:44:41;18.50;;;9.02;;
42364;SDS011;28498;54.400;18.566;2023-08-06T06:47:08;26.40;;;9.63;;
42364;SDS011;28498;54.400;18.566;2023-08-06T06:49:35;22.40;;;8.38;;
42364;SDS011;28498;54.400;18.566;2023-08-06T06:52:02;21.75;;;8.95;;
42364;SDS011;28498;54.400;18.566;2023-08-06T06:54:29;25.58;;;8.73;;
42364;SDS011;28498;54.400;18.566;2023-08-06T06:56:56;25.40;;;9.25;;
42364;SDS011;28498;54.400;18.566;2023-08-06T06:59:23;22.15;;;7.88;;
42364;SDS011;28498;54.400;18.566;2023-08-06T07:01:51;20.92;;;7.80;;
42364;SDS011;28498;54.400;18.566;2023-08-06T07:04:18;17.05;;;7.25;;
42364;SDS011;28498;54.400;18.566;2023-08-06T07:06:45;19.77;;;7.65;;
42364;SDS011;28498;54.400;18.566;2023-08-06T07:09:12;18.95;;;7.38;;
42364;SDS011;28498;54.400;18.566;2023-08-06T07:11:39;22.90;;;6.90;;
42364;SDS011;28498;54.400;18.566;2023-08-06T07:14:08;20.63;;;6.50;;
42364;SDS011;28498;54.400;18.566;2023-08-06T07:16:35;14.93;;;6.70;;
42364;SDS011;28498;54.400;18.566;2023-08-06T07:19:02;11.50;;;6.88;;
42364;SDS011;28498;54.400;18.566;2023-08-06T07:21:29;13.52;;;6.28;;
42364;SDS011;28498;54.400;18.566;2023-08-06T07:23:56;14.60;;;5.68;;
42364;SDS011;28498;54.400;18.566;2023-08-06T07:26:23;14.38;;;6.95;;
42364;SDS011;28498;54.400;18.566;2023-08-06T07:28:50;12.77;;;5.72;;
42364;SDS011;28498;54.400;18.566;2023-08-06T07:31:17;15.13;;;6.20;;
42364;SDS011;28498;54.400;18.566;2023-08-06T07:33:44;12.93;;;5.80;;
42364;SDS011;28498;54.400;18.566;2023-08-06T07:36:11;10.77;;;5.72;;
42364;SDS011;28498;54.400;18.566;2023-08-06T07:38:40;10.50;;;4.95;;
42364;SDS011;28498;54.400;18.566;2023-08-06T07:41:08;12.38;;;5.28;;
42364;SDS011;28498;54.400;18.566;2023-08-06T07:43:35;12.73;;;5.13;;
42364;SDS011;28498;54.400;18.566;2023-08-06T07:46:02;9.45;;;4.63;;
42364;SDS011;28498;54.400;18.566;2023-08-06T07:48:30;11.00;;;5.10;;
42364;SDS011;28498;54.400;18.566;2023-08-06T07:50:57;9.27;;;4.70;;
42364;SDS011;28498;54.400;18.566;2023-08-06T07:53:24;10.50;;;4.50;;
42364;SDS011;28498;54.400;18.566;2023-08-06T07:55:56;10.40;;;4.53;;
42364;SDS011;28498;54.400;18.566;2023-08-06T07:58:24;7.30;;;4.00;;
42364;SDS011;28498;54.400;18.566;2023-08-06T08:00:51;8.68;;;3.58;;
42364;SDS011;28498;54.400;18.566;2023-08-06T08:03:19;7.20;;;3.72;;
42364;SDS011;28498;54.400;18.566;2023-08-06T08:05:46;9.52;;;3.35;;
42364;SDS011;28498;54.400;18.566;2023-08-06T08:08:13;6.22;;;3.13;;
42364;SDS011;28498;54.400;18.566;2023-08-06T08:10:42;6.93;;;3.05;;
42364;SDS011;28498;54.400;18.566;2023-08-06T08:13:09;6.88;;;3.60;;
42364;SDS011;28498;54.400;18.566;2023-08-06T08:15:36;7.90;;;4.20;;
42364;SDS011;28498;54.400;18.566;2023-08-06T08:18:03;7.82;;;4.03;;
42364;SDS011;28498;54.400;18.566;2023-08-06T08:20:30;7.57;;;4.00;;
42364;SDS011;28498;54.400;18.566;2023-08-06T08:23:01;8.65;;;4.30;;
42364;SDS011;28498;54.400;18.566;2023-08-06T08:25:29;12.43;;;5.03;;
42364;SDS011;28498;54.400;18.566;2023-08-06T08:27:57;12.40;;;4.30;;
42364;SDS011;28498;54.400;18.566;2023-08-06T08:30:24;9.73;;;4.65;;
42364;SDS011;28498;54.400;18.566;2023-08-06T08:32:55;13.80;;;4.30;;
42364;SDS011;28498;54.400;18.566;2023-08-06T08:35:22;14.32;;;4.35;;
42364;SDS011;28498;54.400;18.566;2023-08-06T08:37:49;14.65;;;5.20;;
42364;SDS011;28498;54.400;18.566;2023-08-06T08:40:16;10.35;;;5.22;;
42364;SDS011;28498;54.400;18.566;2023-08-06T08:42:44;16.02;;;5.85;;
42364;SDS011;28498;54.400;18.566;2023-08-06T08:45:12;12.85;;;4.90;;
42364;SDS011;28498;54.400;18.566;2023-08-06T08:47:43;12.55;;;5.40;;
42364;SDS011;28498;54.400;18.566;2023-08-06T08:50:11;8.35;;;4.45;;
42364;SDS011;28498;54.400;18.566;2023-08-06T08:52:38;15.50;;;5.95;;
42364;SDS011;28498;54.400;18.566;2023-08-06T08:55:06;15.60;;;5.88;;
42364;SDS011;28498;54.400;18.566;2023-08-06T08:57:34;12.23;;;5.13;;
42364;SDS011;28498;54.400;18.566;2023-08-06T09:00:01;11.85;;;4.60;;
42364;SDS011;28498;54.400;18.566;2023-08-06T09:02:29;14.68;;;5.88;;
42364;SDS011;28498;54.400;18.566;2023-08-06T09:04:59;14.02;;;5.40;;
42364;SDS011;28498;54.400;18.566;2023-08-06T09:07:34;13.27;;;5.22;;
42364;SDS011;28498;54.400;18.566;2023-08-06T09:10:05;12.90;;;4.70;;
42364;SDS011;28498;54.400;18.566;2023-08-06T09:12:36;10.00;;;4.90;;
42364;SDS011;28498;54.400;18.566;2023-08-06T09:15:04;16.73;;;5.80;;
42364;SDS011;28498;54.400;18.566;2023-08-06T09:17:31;8.98;;;4.90;;
42364;SDS011;28498;54.400;18.566;2023-08-06T09:19:58;18.13;;;6.03;;
42364;SDS011;28498;54.400;18.566;2023-08-06T09:22:27;11.43;;;5.65;;
42364;SDS011;28498;54.400;18.566;2023-08-06T09:25:01;13.45;;;6.43;;
42364;SDS011;28498;54.400;18.566;2023-08-06T09:27:30;11.65;;;6.03;;
42364;SDS011;28498;54.400;18.566;2023-08-06T09:29:57;15.13;;;6.50;;
42364;SDS011;28498;54.400;18.566;2023-08-06T09:32:24;15.23;;;8.10;;
42364;SDS011;28498;54.400;18.566;2023-08-06T09:34:55;16.15;;;6.95;;
42364;SDS011;28498;54.400;18.566;2023-08-06T09:37:23;11.52;;;6.63;;
42364;SDS011;28498;54.400;18.566;2023-08-06T09:40:01;11.13;;;6.70;;
42364;SDS011;28498;54.400;18.566;2023-08-06T09:42:29;14.85;;;7.32;;
42364;SDS011;28498;54.400;18.566;2023-08-06T09:45:05;9.88;;;6.47;;
42364;SDS011;28498;54.400;18.566;2023-08-06T09:47:32;11.75;;;6.97;;
42364;SDS011;28498;54.400;18.566;2023-08-06T09:50:00;11.27;;;7.35;;
42364;SDS011;28498;54.400;18.566;2023-08-06T09:52:27;11.35;;;7.22;;
42364;SDS011;28498;54.400;18.566;2023-08-06T09:54:54;12.15;;;8.02;;
42364;SDS011;28498;54.400;18.566;2023-08-06T09:57:21;12.63;;;8.93;;
42364;SDS011;28498;54.400;18.566;2023-08-06T09:59:50;14.35;;;9.27;;
42364;SDS011;28498;54.400;18.566;2023-08-06T10:02:18;13.60;;;9.05;;
42364;SDS011;28498;54.400;18.566;2023-08-06T10:04:51;11.60;;;8.15;;
42364;SDS011;28498;54.400;18.566;2023-08-06T10:07:21;10.57;;;8.07;;
42364;SDS011;28498;54.400;18.566;2023-08-06T10:09:52;16.45;;;8.68;;
42364;SDS011;28498;54.400;18.566;2023-08-06T10:12:19;15.27;;;8.55;;
42364;SDS011;28498;54.400;18.566;2023-08-06T10:14:47;13.02;;;9.13;;
42364;SDS011;28498;54.400;18.566;2023-08-06T10:17:15;13.43;;;8.40;;
42364;SDS011;28498;54.400;18.566;2023-08-06T10:19:43;15.40;;;8.93;;
42364;SDS011;28498;54.400;18.566;2023-08-06T10:24:56;10.90;;;7.43;;
42364;SDS011;28498;54.400;18.566;2023-08-06T10:30:26;13.55;;;8.18;;
42364;SDS011;28498;54.400;18.566;2023-08-06T10:33:02;13.73;;;8.88;;
42364;SDS011;28498;54.400;18.566;2023-08-06T10:35:37;13.85;;;7.53;;
42364;SDS011;28498;54.400;18.566;2023-08-06T10:38:08;14.98;;;8.48;;
42364;SDS011;28498;54.400;18.566;2023-08-06T10:40:36;14.32;;;8.35;;
42364;SDS011;28498;54.400;18.566;2023-08-06T10:43:05;19.42;;;8.95;;
42364;SDS011;28498;54.400;18.566;2023-08-06T10:45:35;20.25;;;8.43;;
42364;SDS011;28498;54.400;18.566;2023-08-06T10:48:03;12.73;;;8.15;;
42364;SDS011;28498;54.400;18.566;2023-08-06T10:50:31;17.90;;;9.82;;
42364;SDS011;28498;54.400;18.566;2023-08-06T10:53:03;13.13;;;7.97;;
42364;SDS011;28498;54.400;18.566;2023-08-06T10:55:32;16.73;;;8.52;;
42364;SDS011;28498;54.400;18.566;2023-08-06T10:57:59;13.80;;;8.07;;
42364;SDS011;28498;54.400;18.566;2023-08-06T11:00:26;12.10;;;8.30;;
42364;SDS011;28498;54.400;18.566;2023-08-06T11:02:53;14.10;;;8.32;;
42364;SDS011;28498;54.400;18.566;2023-08-06T11:05:21;14.10;;;9.25;;
42364;SDS011;28498;54.400;18.566;2023-08-06T11:07:48;12.35;;;7.63;;
42364;SDS011;28498;54.400;18.566;2023-08-06T11:10:17;13.48;;;7.45;;
42364;SDS011;28498;54.400;18.566;2023-08-06T11:12:44;10.40;;;7.07;;
42364;SDS011;28498;54.400;18.566;2023-08-06T11:15:11;9.50;;;6.43;;
42364;SDS011;28498;54.400;18.566;2023-08-06T11:17:39;10.80;;;7.10;;
42364;SDS011;28498;54.400;18.566;2023-08-06T11:20:08;11.02;;;6.20;;
42364;SDS011;28498;54.400;18.566;2023-08-06T11:22:36;11.70;;;6.72;;
42364;SDS011;28498;54.400;18.566;2023-08-06T11:25:04;10.50;;;6.97;;
42364;SDS011;28498;54.400;18.566;2023-08-06T11:27:32;12.30;;;7.00;;
42364;SDS011;28498;54.400;18.566;2023-08-06T11:29:59;8.65;;;6.00;;
42364;SDS011;28498;54.400;18.566;2023-08-06T11:32:27;8.95;;;6.22;;
42364;SDS011;28498;54.400;18.566;2023-08-06T11:34:54;11.20;;;6.53;;
42364;SDS011;28498;54.400;18.566;2023-08-06T11:37:22;11.35;;;6.43;;
42364;SDS011;28498;54.400;18.566;2023-08-06T11:39:52;9.82;;;6.85;;
42364;SDS011;28498;54.400;18.566;2023-08-06T11:42:19;9.25;;;6.50;;
42364;SDS011;28498;54.400;18.566;2023-08-06T11:44:47;14.90;;;7.25;;
42364;SDS011;28498;54.400;18.566;2023-08-06T11:47:17;12.50;;;8.50;;
42364;SDS011;28498;54.400;18.566;2023-08-06T11:49:50;11.45;;;7.35;;
42364;SDS011;28498;54.400;18.566;2023-08-06T11:52:18;11.80;;;7.72;;
42364;SDS011;28498;54.400;18.566;2023-08-06T11:54:47;12.18;;;7.90;;
42364;SDS011;28498;54.400;18.566;2023-08-06T11:57:26;15.35;;;9.45;;
42364;SDS011;28498;54.400;18.566;2023-08-06T11:59:55;11.68;;;7.95;;
42364;SDS011;28498;54.400;18.566;2023-08-06T12:02:22;11.95;;;8.50;;
42364;SDS011;28498;54.400;18.566;2023-08-06T12:07:49;13.55;;;8.55;;
42364;SDS011;28498;54.400;18.566;2023-08-06T12:10:22;11.77;;;8.25;;
42364;SDS011;28498;54.400;18.566;2023-08-06T12:12:51;13.85;;;8.73;;
42364;SDS011;28498;54.400;18.566;2023-08-06T12:15:18;10.50;;;8.00;;
42364;SDS011;28498;54.400;18.566;2023-08-06T12:17:46;11.60;;;8.43;;
42364;SDS011;28498;54.400;18.566;2023-08-06T12:20:13;12.10;;;7.80;;
42364;SDS011;28498;54.400;18.566;2023-08-06T12:22:40;10.45;;;6.97;;
42364;SDS011;28498;54.400;18.566;2023-08-06T12:25:08;10.63;;;7.70;;
42364;SDS011;28498;54.400;18.566;2023-08-06T12:27:38;12.88;;;7.68;;
42364;SDS011;28498;54.400;18.566;2023-08-06T12:30:07;10.93;;;7.57;;
42364;SDS011;28498;54.400;18.566;2023-08-06T12:32:35;12.00;;;8.35;;
42364;SDS011;28498;54.400;18.566;2023-08-06T12:35:02;11.20;;;7.72;;
42364;SDS011;28498;54.400;18.566;2023-08-06T12:37:29;10.85;;;7.50;;
42364;SDS011;28498;54.400;18.566;2023-08-06T12:39:56;12.95;;;7.93;;
42364;SDS011;28498;54.400;18.566;2023-08-06T12:42:23;9.80;;;7.95;;
42364;SDS011;28498;54.400;18.566;2023-08-06T12:44:51;11.40;;;8.00;;
42364;SDS011;28498;54.400;18.566;2023-08-06T12:47:18;10.10;;;7.60;;
42364;SDS011;28498;54.400;18.566;2023-08-06T12:49:46;9.82;;;7.47;;
42364;SDS011;28498;54.400;18.566;2023-08-06T12:52:13;12.85;;;7.90;;
42364;SDS011;28498;54.400;18.566;2023-08-06T12:54:42;13.32;;;8.57;;
42364;SDS011;28498;54.400;18.566;2023-08-06T12:57:09;12.02;;;8.20;;
42364;SDS011;28498;54.400;18.566;2023-08-06T12:59:36;10.27;;;7.95;;
42364;SDS011;28498;54.400;18.566;2023-08-06T13:02:03;11.93;;;8.00;;
42364;SDS011;28498;54.400;18.566;2023-08-06T13:04:30;9.65;;;7.25;;
42364;SDS011;28498;54.400;18.566;2023-08-06T13:06:58;13.95;;;8.45;;
42364;SDS011;28498;54.400;18.566;2023-08-06T13:09:25;10.38;;;8.25;;
42364;SDS011;28498;54.400;18.566;2023-08-06T13:11:56;11.02;;;8.13;;
42364;SDS011;28498;54.400;18.566;2023-08-06T13:14:26;10.18;;;8.25;;
42364;SDS011;28498;54.400;18.566;2023-08-06T13:16:54;10.25;;;7.65;;
42364;SDS011;28498;54.400;18.566;2023-08-06T13:19:22;10.35;;;7.65;;
42364;SDS011;28498;54.400;18.566;2023-08-06T13:24:16;13.82;;;8.80;;
42364;SDS011;28498;54.400;18.566;2023-08-06T13:26:43;11.63;;;8.27;;
42364;SDS011;28498;54.400;18.566;2023-08-06T13:29:10;11.07;;;8.75;;
42364;SDS011;28498;54.400;18.566;2023-08-06T13:31:37;11.23;;;8.77;;
42364;SDS011;28498;54.400;18.566;2023-08-06T13:34:05;12.13;;;7.97;;
42364;SDS011;28498;54.400;18.566;2023-08-06T13:36:32;11.55;;;8.85;;
42364;SDS011;28498;54.400;18.566;2023-08-06T13:38:59;10.30;;;8.57;;
42364;SDS011;28498;54.400;18.566;2023-08-06T13:41:27;11.23;;;8.63;;
42364;SDS011;28498;54.400;18.566;2023-08-06T13:43:54;11.30;;;8.60;;
42364;SDS011;28498;54.400;18.566;2023-08-06T13:46:21;9.82;;;7.65;;
42364;SDS011;28498;54.400;18.566;2023-08-06T13:48:48;11.25;;;8.52;;
42364;SDS011;28498;54.400;18.566;2023-08-06T13:51:17;9.90;;;8.48;;
42364;SDS011;28498;54.400;18.566;2023-08-06T13:53:45;11.68;;;8.82;;
42364;SDS011;28498;54.400;18.566;2023-08-06T13:56:12;10.00;;;8.27;;
42364;SDS011;28498;54.400;18.566;2023-08-06T13:58:41;10.18;;;7.85;;
42364;SDS011;28498;54.400;18.566;2023-08-06T14:01:12;12.68;;;8.18;;
42364;SDS011;28498;54.400;18.566;2023-08-06T14:03:39;13.93;;;8.93;;
42364;SDS011;28498;54.400;18.566;2023-08-06T14:06:07;10.25;;;8.00;;
42364;SDS011;28498;54.400;18.566;2023-08-06T14:08:34;11.15;;;8.35;;
42364;SDS011;28498;54.400;18.566;2023-08-06T14:11:01;11.68;;;8.43;;
42364;SDS011;28498;54.400;18.566;2023-08-06T14:13:28;12.00;;;8.88;;
42364;SDS011;28498;54.400;18.566;2023-08-06T14:15:55;12.00;;;8.43;;
42364;SDS011;28498;54.400;18.566;2023-08-06T14:18:22;12.45;;;8.88;;
42364;SDS011;28498;54.400;18.566;2023-08-06T14:20:49;13.52;;;10.07;;
42364;SDS011;28498;54.400;18.566;2023-08-06T14:23:16;13.27;;;9.60;;
42364;SDS011;28498;54.400;18.566;2023-08-06T14:25:43;14.88;;;9.88;;
42364;SDS011;28498;54.400;18.566;2023-08-06T14:28:10;11.98;;;9.23;;
42364;SDS011;28498;54.400;18.566;2023-08-06T14:30:37;11.43;;;9.30;;
42364;SDS011;28498;54.400;18.566;2023-08-06T14:33:04;11.82;;;9.52;;
42364;SDS011;28498;54.400;18.566;2023-08-06T14:35:51;14.00;;;10.38;;
42364;SDS011;28498;54.400;18.566;2023-08-06T14:38:18;11.52;;;10.25;;
42364;SDS011;28498;54.400;18.566;2023-08-06T14:40:45;15.18;;;10.93;;
42364;SDS011;28498;54.400;18.566;2023-08-06T14:43:13;12.35;;;10.43;;
42364;SDS011;28498;54.400;18.566;2023-08-06T14:45:41;14.75;;;10.77;;